Alvada, Ohio
Current Conditions -  °F | °C
As of 5:53 PM on Thursday 27 Nov 2014 (Local Time) from KFDY Reporting Station
Overcast Overcast  
Wind Chill: -6°   Ceiling: 1900
Heat Index:   Visibility: 10mi
Dew Point: -3°   Wind: 18mph
Humidity: 79%   Direction: 270°W
Pressure: 30.23"   Gusts: NA
Location:  41.05°N, 83.4°W
Report Text: KFDY 272253Z AUTO 27016KT 10SM BKN019 BKN025 OVC037 00/M03 A3023 RMK AO2 SNE2155 SLP243 P0000 T00001033
Loading
Personal Weather Stations






























Interactive Weather Map New forecast layout! Learn more

10-Day Weather Forecast

Advertisements
Track Severe Weather on mobile